Time;durP1;ratioP1;P1;durP2;ratioP2;P2;SDS_P1;SDS_P2;PMS_P1;PMS_P2;Temp;Humidity;BMP_temperature;BMP_pressure;BME280_temperature;BME280_humidity;BME280_pressure;Samples;Min_cycle;Max_cycle;Signal;HPM_P1;HPM_P2
2023/01/13 00:00:21;;;;;;;6.22;3.15;;;;;;;6.72;73.11;98259.50;4967293;28;20038;-69
2023/01/13 00:02:47;;;;;;;6.72;2.70;;;;;;;6.74;72.75;98260.06;4967546;28;20035;-69
2023/01/13 00:05:12;;;;;;;6.95;3.47;;;;;;;6.75;72.63;98253.50;4967637;28;20084;-68
2023/01/13 00:07:39;;;;;;;8.73;3.95;;;;;;;6.76;72.63;98247.78;4966360;28;20030;-70
2023/01/13 00:10:09;;;;;;;10.00;3.67;;;;;;;6.76;72.41;98244.25;4966466;28;20035;-68
2023/01/13 00:12:38;;;;;;;10.02;4.10;;;;;;;6.75;72.44;98250.78;4965959;28;20027;-68
2023/01/13 00:15:03;;;;;;;11.82;4.57;;;;;;;6.74;72.23;98249.16;4971341;28;20084;-67
2023/01/13 00:17:30;;;;;;;10.05;4.43;;;;;;;6.74;72.58;98240.97;4976783;28;20356;-67
2023/01/13 00:19:55;;;;;;;6.80;3.83;;;;;;;6.73;72.26;98244.78;4966998;28;20381;-68
2023/01/13 00:22:21;;;;;;;6.07;3.15;;;;;;;6.74;72.15;98236.31;4982810;28;20027;-68
2023/01/13 00:24:46;;;;;;;11.75;5.45;;;;;;;6.74;72.26;98239.06;4968531;28;20019;-68
2023/01/13 00:27:11;;;;;;;4.05;2.58;;;;;;;6.73;71.88;98234.69;4967365;28;20053;-68
2023/01/13 00:29:37;;;;;;;5.70;2.00;;;;;;;6.73;71.93;98240.16;4985292;28;20502;-69
2023/01/13 00:32:02;;;;;;;6.75;3.25;;;;;;;6.71;71.73;98234.19;4967073;28;20027;-69
2023/01/13 00:34:28;;;;;;;8.02;4.05;;;;;;;6.69;71.89;98239.09;4979332;28;20471;-68
2023/01/13 00:36:53;;;;;;;7.47;3.78;;;;;;;6.67;71.82;98233.91;4968842;28;20550;-68
2023/01/13 00:39:19;;;;;;;6.13;3.03;;;;;;;6.69;71.43;98237.16;4968574;28;20030;-68
2023/01/13 00:44:28;;;;;;;3.92;2.50;;;;;;;6.65;71.16;98235.28;4968985;28;20099;-69
2023/01/13 00:46:53;;;;;;;4.15;2.28;;;;;;;6.62;71.53;98233.09;4968628;28;20110;-68
2023/01/13 00:49:18;;;;;;;4.53;2.60;;;;;;;6.61;71.17;98232.28;4968386;28;20038;-68
2023/01/13 00:51:44;;;;;;;4.43;2.75;;;;;;;6.60;71.41;98233.38;4968564;28;20030;-68
2023/01/13 00:54:10;;;;;;;4.35;2.47;;;;;;;6.61;71.37;98235.00;4968810;28;20023;-69
2023/01/13 00:56:35;;;;;;;3.30;2.10;;;;;;;6.60;71.68;98230.63;4967627;28;20043;-68
2023/01/13 00:59:01;;;;;;;5.70;3.17;;;;;;;6.61;71.08;98235.00;4967853;28;20023;-68
2023/01/13 01:01:26;;;;;;;4.78;3.08;;;;;;;6.61;71.08;98234.19;4968527;28;20423;-69
2023/01/13 01:03:53;;;;;;;7.72;3.38;;;;;;;6.61;71.19;98236.94;4968374;28;20455;-69
2023/01/13 01:06:24;;;;;;;5.18;2.70;;;;;;;6.62;71.37;98238.56;4967856;28;20121;-68
2023/01/13 01:08:50;;;;;;;12.60;4.82;;;;;;;6.63;71.17;98234.75;4966775;28;20026;-69
2023/01/13 01:11:20;;;;;;;10.15;5.13;;;;;;;6.64;71.00;98234.44;4968463;28;20031;-69
2023/01/13 01:13:45;;;;;;;5.38;2.70;;;;;;;6.65;70.83;98238.00;4968625;28;20030;-68
2023/01/13 01:16:14;;;;;;;5.70;2.38;;;;;;;6.66;70.87;98228.75;4968399;28;20076;-68
2023/01/13 01:18:42;;;;;;;4.97;2.72;;;;;;;6.68;71.31;98227.34;4967654;28;20118;-68
2023/01/13 01:21:08;;;;;;;8.68;4.43;;;;;;;6.70;70.76;98218.91;4986150;28;20035;-68
2023/01/13 01:23:34;;;;;;;6.57;3.60;;;;;;;6.71;70.76;98209.66;4979884;28;20026;-68
2023/01/13 01:26:06;;;;;;;5.55;2.50;;;;;;;6.72;70.54;98214.00;4973985;28;20047;-68
2023/01/13 01:28:32;;;;;;;7.88;3.25;;;;;;;6.73;70.76;98210.16;4977302;28;20479;-69
2023/01/13 01:30:58;;;;;;;6.82;2.92;;;;;;;6.72;70.75;98203.13;5025307;28;20050;-69
2023/01/13 01:33:24;;;;;;;5.60;3.40;;;;;;;6.74;70.67;98202.81;5038826;28;20030;-69
2023/01/13 01:35:50;;;;;;;9.35;4.88;;;;;;;6.74;70.64;98208.28;4968815;28;20035;-68
2023/01/13 01:38:16;;;;;;;11.60;4.97;;;;;;;6.76;70.52;98204.16;4967207;28;20035;-69
2023/01/13 01:40:41;;;;;;;9.43;4.20;;;;;;;6.74;70.51;98203.63;4968608;28;20062;-69
2023/01/13 01:45:58;;;;;;;7.05;3.50;;;;;;;6.72;69.90;98194.94;4969096;28;20041;-69
2023/01/13 01:48:27;;;;;;;6.82;3.30;;;;;;;6.71;70.09;98196.03;4968220;28;20035;-69
2023/01/13 01:50:53;;;;;;;8.30;3.78;;;;;;;6.71;69.83;98176.94;4967668;28;20031;-69
2023/01/13 01:53:22;;;;;;;7.38;3.67;;;;;;;6.72;69.76;98185.94;4968898;28;20030;-69
2023/01/13 01:55:47;;;;;;;13.32;5.80;;;;;;;6.72;69.80;98186.75;4968240;28;20122;-68
2023/01/13 01:58:21;;;;;;;10.05;4.53;;;;;;;6.74;69.71;98187.25;4968457;28;20523;-68
2023/01/13 02:00:47;;;;;;;12.35;4.22;;;;;;;6.77;69.67;98173.09;4967341;28;20100;-68
2023/01/13 02:03:15;;;;;;;8.02;3.10;;;;;;;6.77;69.39;98169.56;4968466;28;20053;-69
2023/01/13 02:05:40;;;;;;;7.53;3.67;;;;;;;6.77;69.63;98164.09;4967002;28;20031;-68
2023/01/13 02:08:09;;;;;;;5.72;3.03;;;;;;;6.76;69.65;98160.56;4965388;28;20039;-69
2023/01/13 02:10:35;;;;;;;4.88;3.13;;;;;;;6.76;69.40;98157.81;4970334;28;20030;-69
2023/01/13 02:13:09;;;;;;;8.10;4.50;;;;;;;6.75;69.50;98156.19;4970161;28;20026;-69
2023/01/13 02:15:43;;;;;;;14.93;6.63;;;;;;;6.76;69.47;98157.81;4971540;28;20030;-69
2023/01/13 02:18:32;;;;;;;11.23;5.00;;;;;;;6.80;69.86;98153.44;4969894;28;20556;-68
2023/01/13 02:21:06;;;;;;;6.50;3.03;;;;;;;6.87;69.43;98145.00;4980507;28;20035;-68
2023/01/13 02:26:26;;;;;;;6.35;3.10;;;;;;;6.94;68.42;98134.56;4968169;28;20108;-69
2023/01/13 02:32:02;;;;;;;2.95;2.33;;;;;;;6.98;68.99;98132.13;4977712;28;20049;-68
2023/01/13 02:34:37;;;;;;;6.68;4.10;;;;;;;7.00;68.24;98128.00;5001065;28;20032;-69
2023/01/13 02:37:13;;;;;;;5.85;3.33;;;;;;;7.02;68.76;98138.66;5072972;28;20048;-68
2023/01/13 02:39:44;;;;;;;5.75;2.90;;;;;;;7.04;68.87;98138.34;4986844;28;20031;-69
2023/01/13 02:45:30;;;;;;;4.70;2.85;;;;;;;7.10;68.50;98137.22;4968225;28;20041;-69
2023/01/13 02:47:58;;;;;;;4.30;2.85;;;;;;;7.10;68.48;98139.97;4969808;28;20042;-69
2023/01/13 02:50:34;;;;;;;5.10;3.00;;;;;;;7.10;68.83;98145.41;4968668;28;20113;-68
2023/01/13 02:53:23;;;;;;;6.57;4.72;;;;;;;7.11;68.45;98133.41;4970888;28;20019;-68
2023/01/13 02:55:52;;;;;;;4.97;3.30;;;;;;;7.10;68.39;98137.22;4970003;28;20509;-69
2023/01/13 02:58:23;;;;;;;7.18;3.80;;;;;;;7.08;68.54;98142.97;5065744;28;20028;-69
2023/01/13 03:00:48;;;;;;;7.40;3.97;;;;;;;7.09;68.89;98139.16;5021707;28;20555;-68
2023/01/13 03:03:14;;;;;;;7.90;3.97;;;;;;;7.09;68.61;98141.88;4970916;28;20153;-68
2023/01/13 03:05:42;;;;;;;7.45;4.13;;;;;;;7.08;68.48;98134.81;5006593;28;20020;-68
2023/01/13 03:08:14;;;;;;;13.70;6.68;;;;;;;7.08;68.43;98136.69;4967490;28;20434;-68
2023/01/13 03:10:50;;;;;;;13.00;6.15;;;;;;;7.06;69.03;98142.44;4972393;28;20042;-69
2023/01/13 03:13:31;;;;;;;10.43;5.20;;;;;;;7.05;68.29;98135.34;4969763;28;20033;-69
2023/01/13 03:16:24;;;;;;;7.85;4.68;;;;;;;7.04;68.25;98139.19;4968866;28;20139;-69
2023/01/13 03:19:04;;;;;;;7.40;4.60;;;;;;;7.06;68.39;98136.16;4967573;28;20056;-69
2023/01/13 03:21:39;;;;;;;7.78;3.88;;;;;;;7.07;68.70;98140.53;5013475;28;20040;-69
2023/01/13 03:24:23;;;;;;;6.28;4.18;;;;;;;7.09;68.56;98135.59;5071863;28;20040;-69
2023/01/13 03:26:55;;;;;;;7.70;4.47;;;;;;;7.09;68.19;98132.88;5071453;28;20028;-68
2023/01/13 03:29:26;;;;;;;7.55;3.90;;;;;;;7.10;68.24;98139.97;5015365;28;20538;-69
2023/01/13 03:32:03;;;;;;;10.57;4.80;;;;;;;7.09;68.27;98132.88;4969924;28;20080;-69
2023/01/13 03:34:44;;;;;;;6.65;4.13;;;;;;;7.09;68.76;98136.44;5048610;28;20059;-69
2023/01/13 03:37:13;;;;;;;7.80;4.45;;;;;;;7.10;68.01;98131.78;4985031;28;20034;-68
2023/01/13 03:39:42;;;;;;;7.32;4.63;;;;;;;7.08;68.40;98128.50;4969732;28;20050;-69
2023/01/13 03:42:13;;;;;;;6.07;4.20;;;;;;;7.08;67.96;98121.16;4972004;28;21291;-69
2023/01/13 03:44:53;;;;;;;6.97;4.07;;;;;;;7.10;68.21;98129.88;4972149;28;20083;-70
2023/01/13 03:47:27;;;;;;;7.18;4.40;;;;;;;7.11;67.43;98134.25;5032058;28;20103;-68
2023/01/13 03:50:00;;;;;;;7.25;3.85;;;;;;;7.10;68.34;98135.34;4969378;28;20088;-69
2023/01/13 03:52:36;;;;;;;8.38;4.70;;;;;;;7.14;67.57;98130.91;4969880;28;20046;-69
2023/01/13 03:55:11;;;;;;;9.50;3.80;;;;;;;7.15;68.28;98143.47;4969902;28;20029;-69
2023/01/13 03:57:55;;;;;;;7.28;3.80;;;;;;;7.19;67.97;98129.25;5009094;28;20047;-69
2023/01/13 04:00:31;;;;;;;5.35;3.53;;;;;;;7.21;67.97;98138.81;5029062;28;20057;-69
2023/01/13 04:03:04;;;;;;;7.90;3.83;;;;;;;7.24;67.37;98123.78;4969386;28;20483;-69
2023/01/13 04:05:32;;;;;;;7.07;3.72;;;;;;;7.24;67.78;98134.69;4969655;28;20356;-70
2023/01/13 04:08:06;;;;;;;5.30;3.33;;;;;;;7.25;67.38;98144.50;4966747;28;20506;-70
2023/01/13 04:10:37;;;;;;;7.53;3.15;;;;;;;7.28;67.90;98142.03;4982131;28;20085;-69
2023/01/13 04:13:09;;;;;;;7.95;4.38;;;;;;;7.31;68.01;98140.66;4969368;28;20442;-69
2023/01/13 04:15:39;;;;;;;6.15;3.45;;;;;;;7.35;67.14;98146.34;5042584;28;20031;-70
2023/01/13 04:18:08;;;;;;;7.43;3.40;;;;;;;7.34;66.98;98129.19;4969245;28;20483;-70
2023/01/13 04:20:33;;;;;;;5.88;3.08;;;;;;;7.35;67.44;98127.25;4968523;28;20531;-69
2023/01/13 04:22:59;;;;;;;8.45;4.43;;;;;;;7.38;67.26;98138.44;4968094;28;20110;-69
2023/01/13 04:25:24;;;;;;;4.78;3.13;;;;;;;7.38;67.21;98130.25;4968261;28;20023;-70
2023/01/13 04:27:49;;;;;;;8.35;3.67;;;;;;;7.39;67.41;98117.41;5009551;28;20103;-69
2023/01/13 04:30:15;;;;;;;7.20;3.90;;;;;;;7.40;66.89;98110.84;5043257;28;20042;-69
2023/01/13 04:32:40;;;;;;;5.47;3.50;;;;;;;7.39;67.10;98115.50;5044508;28;20078;-70
2023/01/13 04:35:07;;;;;;;5.53;2.97;;;;;;;7.39;66.72;98120.13;4970594;28;20105;-70
2023/01/13 04:37:32;;;;;;;6.07;3.00;;;;;;;7.39;66.75;98115.50;4968781;28;20035;-70
2023/01/13 04:39:58;;;;;;;6.05;2.63;;;;;;;7.38;66.31;98119.34;4968598;28;20026;-70
2023/01/13 04:42:23;;;;;;;7.03;4.32;;;;;;;7.38;66.99;98119.34;4969067;28;20027;-70
2023/01/13 04:44:48;;;;;;;5.20;3.33;;;;;;;7.39;67.19;98118.22;5041387;28;20024;-69
2023/01/13 04:47:14;;;;;;;6.55;3.05;;;;;;;7.38;66.58;98113.03;4981990;28;20537;-69
2023/01/13 04:49:39;;;;;;;5.22;3.10;;;;;;;7.40;66.55;98114.41;4969042;28;20058;-70
2023/01/13 04:52:06;;;;;;;5.65;2.85;;;;;;;7.38;66.73;98113.03;5026395;28;20388;-70
2023/01/13 04:54:31;;;;;;;5.63;3.08;;;;;;;7.38;66.82;98115.78;5052257;28;20396;-70
2023/01/13 04:56:56;;;;;;;5.13;3.10;;;;;;;7.37;66.86;98114.97;5038825;28;20043;-69
2023/01/13 04:59:22;;;;;;;6.65;3.65;;;;;;;7.37;66.31;98117.69;4964511;28;20531;-69
2023/01/13 05:01:47;;;;;;;6.47;3.97;;;;;;;7.37;66.26;98112.25;4965190;28;20043;-69
2023/01/13 05:04:14;;;;;;;4.97;3.10;;;;;;;7.37;66.73;98114.13;4968105;28;20027;-70
2023/01/13 05:06:40;;;;;;;7.47;3.83;;;;;;;7.37;66.59;98120.44;4968278;28;20037;-70
2023/01/13 05:09:05;;;;;;;4.78;3.15;;;;;;;7.35;66.14;98114.44;4967919;28;20050;-70
2023/01/13 05:16:59;;;;;;;5.05;2.85;;;;;;;7.37;66.37;98122.31;4966599;28;20402;-68
2023/01/13 05:19:26;;;;;;;6.65;3.03;;;;;;;7.36;65.98;98118.78;4967914;28;20031;-70
2023/01/13 05:27:20;;;;;;;5.22;2.78;;;;;;;7.39;66.62;98110.06;4967873;28;20049;-70
2023/01/13 05:29:45;;;;;;;5.18;2.90;;;;;;;7.39;66.28;98114.69;4967366;28;20031;-69
2023/01/13 05:32:10;;;;;;;4.72;2.45;;;;;;;7.39;66.12;98115.50;4996522;28;20092;-70
2023/01/13 05:34:36;;;;;;;4.47;2.70;;;;;;;7.40;65.88;98111.69;4967990;28;20027;-70
2023/01/13 05:37:02;;;;;;;5.05;2.60;;;;;;;7.40;65.96;98110.84;4978479;28;20505;-70
2023/01/13 05:43:18;;;;;;;5.13;2.45;;;;;;;7.41;65.81;98105.13;4967637;28;20034;-70
2023/01/13 05:44:56;;;;;;;7.50;3.15;;;;;;;7.42;65.94;98116.84;4971344;28;20082;-71
2023/01/13 05:47:22;;;;;;;5.20;2.47;;;;;;;7.40;65.91;98119.03;5033718;28;20473;-71
2023/01/13 05:49:47;;;;;;;7.53;2.80;;;;;;;7.39;65.84;98111.94;4993816;28;20031;-71
2023/01/13 05:52:12;;;;;;;6.70;2.50;;;;;;;7.39;65.56;98109.22;4981205;28;20027;-70
2023/01/13 05:54:40;;;;;;;4.53;2.58;;;;;;;7.41;65.70;98112.47;5073483;28;20033;-71
2023/01/13 05:57:05;;;;;;;5.10;2.60;;;;;;;7.39;65.55;98109.22;4977358;28;20042;-70
2023/01/13 05:59:30;;;;;;;4.53;2.45;;;;;;;7.40;65.71;98124.50;4970785;28;20027;-70
2023/01/13 06:01:56;;;;;;;5.05;2.60;;;;;;;7.38;65.19;98113.03;4970717;28;20391;-70
2023/01/13 06:04:21;;;;;;;6.07;2.63;;;;;;;7.37;65.29;98114.97;5018113;28;20023;-69
2023/01/13 06:06:47;;;;;;;5.95;3.47;;;;;;;7.36;65.87;98116.06;4963070;28;20479;-69
2023/01/13 06:09:14;;;;;;;5.57;3.08;;;;;;;7.38;65.52;98113.03;4966718;28;20095;-69
2023/01/13 06:11:39;;;;;;;7.57;4.20;;;;;;;7.37;65.54;98117.69;4967394;28;20444;-70
2023/01/13 06:14:05;;;;;;;4.05;2.70;;;;;;;7.37;65.40;98112.25;4970311;28;20058;-70
2023/01/13 06:16:30;;;;;;;7.55;3.50;;;;;;;7.37;66.06;98117.69;4972360;28;20490;-70
2023/01/13 06:18:55;;;;;;;4.90;2.95;;;;;;;7.40;65.76;98116.31;4967995;28;20411;-70
2023/01/13 06:21:21;;;;;;;4.25;2.45;;;;;;;7.41;65.38;98124.22;4968316;28;20031;-70
2023/01/13 06:23:46;;;;;;;4.05;2.67;;;;;;;7.40;66.02;98117.13;4970560;28;20110;-70
2023/01/13 06:26:18;;;;;;;5.43;3.38;;;;;;;7.41;65.73;98118.75;4970214;28;20054;-69
2023/01/13 06:28:44;;;;;;;5.75;3.15;;;;;;;7.42;65.88;98125.03;4991496;28;20024;-70
2023/01/13 06:31:09;;;;;;;10.80;5.13;;;;;;;7.43;65.32;98130.22;5054593;28;20038;-69
2023/01/13 06:33:38;;;;;;;6.07;4.10;;;;;;;7.43;65.26;98119.31;4979047;28;20031;-72
2023/01/13 06:36:11;;;;;;;6.88;3.90;;;;;;;7.42;65.46;98117.66;4969371;28;20030;-69
2023/01/13 06:38:41;;;;;;;10.80;6.88;;;;;;;7.40;65.48;98119.88;4966603;28;20022;-69
2023/01/13 06:41:07;;;;;;;8.93;5.72;;;;;;;7.39;65.87;98122.88;4969349;28;20037;-70
2023/01/13 06:43:34;;;;;;;12.98;8.77;;;;;;;7.37;65.78;98117.69;4970485;28;20108;-68
2023/01/13 06:46:00;;;;;;;9.23;5.50;;;;;;;7.39;65.18;98123.69;4969547;28;20023;-70
2023/01/13 06:48:32;;;;;;;8.20;4.50;;;;;;;7.37;65.21;98123.16;4996131;28;20024;-70
2023/01/13 06:50:58;;;;;;;6.22;3.85;;;;;;;7.34;65.25;98107.34;4967001;28;20035;-70
2023/01/13 06:53:23;;;;;;;7.15;3.13;;;;;;;7.33;65.20;98108.44;5025247;28;20031;-69
2023/01/13 06:55:49;;;;;;;6.72;3.22;;;;;;;7.30;64.83;98101.66;4967974;28;20060;-69
2023/01/13 06:58:14;;;;;;;11.02;5.28;;;;;;;7.28;65.46;98103.03;4970098;28;20028;-69
2023/01/13 07:00:40;;;;;;;7.15;3.30;;;;;;;7.26;65.54;98100.59;4993562;28;20037;-70
2023/01/13 07:03:12;;;;;;;6.65;3.65;;;;;;;7.26;65.40;98094.31;4971616;28;20034;-69
2023/01/13 07:05:38;;;;;;;5.85;2.97;;;;;;;7.23;65.64;98103.06;4977489;28;20492;-70
2023/01/13 07:08:04;;;;;;;6.70;3.70;;;;;;;7.22;65.68;98096.81;4965098;28;20057;-68
2023/01/13 07:10:30;;;;;;;8.13;4.68;;;;;;;7.21;65.46;98097.91;4967709;28;20070;-69
2023/01/13 07:15:52;;;;;;;7.63;3.65;;;;;;;7.18;65.26;98097.63;4969030;28;20041;-69
2023/01/13 07:18:18;;;;;;;8.90;4.78;;;;;;;7.15;65.58;98090.84;4993848;28;20033;-69
2023/01/13 07:20:43;;;;;;;9.90;4.53;;;;;;;7.17;65.17;98104.19;4968714;28;20045;-70
2023/01/13 07:23:08;;;;;;;10.00;5.38;;;;;;;7.17;65.70;98104.19;4968822;28;20062;-69
2023/01/13 07:25:34;;;;;;;10.40;4.85;;;;;;;7.17;65.83;98107.75;5039993;28;20031;-69
2023/01/13 07:27:59;;;;;;;10.60;4.13;;;;;;;7.18;65.71;98105.81;4973156;28;20039;-70
2023/01/13 07:30:24;;;;;;;9.45;4.18;;;;;;;7.17;65.77;98098.72;4969678;28;20039;-69
2023/01/13 07:32:50;;;;;;;9.40;4.00;;;;;;;7.19;65.83;98113.72;4967615;28;20030;-68
2023/01/13 07:35:20;;;;;;;8.30;3.88;;;;;;;7.22;65.78;98112.34;4967968;28;20030;-70
2023/01/13 07:37:47;;;;;;;9.48;4.85;;;;;;;7.24;65.48;98112.88;4967938;28;20030;-71
2023/01/13 07:40:13;;;;;;;8.73;4.30;;;;;;;7.27;65.62;98123.22;4972608;28;20429;-69
2023/01/13 07:45:22;;;;;;;8.52;4.65;;;;;;;7.32;65.96;98111.47;4966079;28;20100;-71
2023/01/13 07:47:51;;;;;;;13.43;6.07;;;;;;;7.33;65.93;98111.19;4967173;28;20035;-70
2023/01/13 07:50:16;;;;;;;10.27;5.30;;;;;;;7.35;65.78;98103.53;4997389;28;20027;-69
2023/01/13 07:52:42;;;;;;;9.60;5.00;;;;;;;7.36;66.04;98109.78;4978949;28;20033;-69
2023/01/13 07:55:07;;;;;;;11.38;4.05;;;;;;;7.35;65.91;98108.16;4997197;28;20023;-68
2023/01/13 07:57:33;;;;;;;14.27;5.22;;;;;;;7.37;66.25;98117.69;4964758;28;20043;-66
2023/01/13 07:59:58;;;;;;;10.23;5.60;;;;;;;7.36;66.25;98115.25;4966752;28;20031;-68
2023/01/13 08:02:24;;;;;;;11.07;4.38;;;;;;;7.38;65.70;98113.88;4968405;28;20073;-68
2023/01/13 08:04:49;;;;;;;9.70;4.50;;;;;;;7.38;65.69;98115.78;4980960;28;20464;-69
2023/01/13 08:07:14;;;;;;;10.32;4.82;;;;;;;7.39;65.83;98118.22;5068696;28;20046;-69
2023/01/13 08:09:40;;;;;;;9.93;5.18;;;;;;;7.42;66.07;98120.41;5031384;28;20034;-68
2023/01/13 08:14:50;;;;;;;9.10;4.72;;;;;;;7.47;65.72;98133.19;4984627;28;20545;-69
2023/01/13 08:17:15;;;;;;;9.52;4.13;;;;;;;7.50;65.86;98138.06;4965838;28;20485;-68
2023/01/13 08:19:42;;;;;;;10.90;5.32;;;;;;;7.51;65.92;98133.44;4967042;28;20034;-68
2023/01/13 08:22:07;;;;;;;10.82;5.10;;;;;;;7.55;66.17;98139.94;4987952;28;20024;-68
2023/01/13 08:24:33;;;;;;;9.30;5.13;;;;;;;7.56;66.44;98130.66;4976632;28;20036;-69
2023/01/13 08:26:58;;;;;;;7.97;4.78;;;;;;;7.58;65.84;98134.75;4983293;28;20027;-70
2023/01/13 08:29:23;;;;;;;11.30;5.40;;;;;;;7.63;66.29;98133.88;5001539;28;20401;-68
2023/01/13 08:31:49;;;;;;;7.22;4.07;;;;;;;7.65;66.63;98134.41;5005184;28;20021;-71
2023/01/13 08:34:14;;;;;;;10.60;5.35;;;;;;;7.70;65.91;98139.84;5019455;28;20103;-70
2023/01/13 08:36:40;;;;;;;10.43;6.10;;;;;;;7.71;65.87;98138.72;5068324;28;20029;-71
2023/01/13 08:39:05;;;;;;;13.93;6.10;;;;;;;7.76;66.26;98137.88;5032064;28;20479;-71
2023/01/13 08:44:15;;;;;;;13.18;8.10;;;;;;;7.84;66.29;98133.72;4967367;28;20091;-71
2023/01/13 08:46:40;;;;;;;13.90;6.10;;;;;;;7.88;66.12;98160.16;4966649;28;20027;-70
2023/01/13 08:49:06;;;;;;;9.57;5.93;;;;;;;7.93;65.70;98155.75;4986971;28;20038;-71
2023/01/13 08:51:31;;;;;;;9.73;6.07;;;;;;;7.96;65.74;98149.72;4967446;28;20606;-70
2023/01/13 08:53:57;;;;;;;8.38;5.07;;;;;;;8.01;65.35;98153.22;5000655;28;20041;-71
2023/01/13 08:56:22;;;;;;;8.70;5.47;;;;;;;8.04;65.52;98149.13;4966854;28;20479;-72
2023/01/13 08:58:47;;;;;;;8.57;5.55;;;;;;;8.07;65.61;98155.91;4965862;28;20065;-70
2023/01/13 09:01:18;;;;;;;9.52;5.40;;;;;;;8.12;65.13;98158.59;4964975;28;20027;-70
2023/01/13 09:03:44;;;;;;;7.15;4.50;;;;;;;8.13;65.07;98158.31;4975586;28;20034;-70
2023/01/13 09:06:09;;;;;;;10.18;5.10;;;;;;;8.16;64.65;98157.72;4971704;28;20020;-71
2023/01/13 09:08:35;;;;;;;8.90;4.38;;;;;;;8.16;64.91;98154.19;4972491;28;20023;-71
2023/01/13 09:11:00;;;;;;;8.18;4.65;;;;;;;8.19;64.54;98157.16;4962358;28;20041;-71
2023/01/13 09:13:25;;;;;;;8.07;4.60;;;;;;;8.20;64.78;98150.56;4986197;28;20050;-70
2023/01/13 09:15:54;;;;;;;7.93;4.50;;;;;;;8.22;64.72;98153.03;4988330;28;20036;-69
2023/01/13 09:18:20;;;;;;;10.63;6.20;;;;;;;8.23;65.09;98151.94;4993621;28;20394;-69
2023/01/13 09:20:45;;;;;;;9.32;5.05;;;;;;;8.25;63.88;98141.53;5006228;28;20030;-70
2023/01/13 09:23:10;;;;;;;8.68;4.30;;;;;;;8.29;64.75;98147.22;5019201;28;20032;-69
2023/01/13 09:25:36;;;;;;;8.02;5.25;;;;;;;8.33;63.97;98140.91;5029479;28;20461;-69
2023/01/13 09:28:03;;;;;;;10.90;4.18;;;;;;;8.38;64.58;98134.56;5008521;28;20065;-71
2023/01/13 09:30:29;;;;;;;6.82;3.65;;;;;;;8.47;63.09;98142.94;5018238;28;20032;-68
2023/01/13 09:34:58;;;;;;;6.03;3.80;;;;;;;8.54;63.62;98146.16;5039794;28;20031;-69
2023/01/13 09:35:42;;;;;;;9.40;5.13;;;;;;;8.59;62.47;98134.34;4987652;28;20034;-70
2023/01/13 09:38:07;;;;;;;11.73;6.72;;;;;;;8.61;62.61;98127.50;4972474;28;20213;-70
2023/01/13 09:40:35;;;;;;;17.02;8.63;;;;;;;8.66;62.43;98131.28;4972851;28;20084;-70
2023/01/13 09:43:55;;;;;;;15.45;7.18;;;;;;;8.69;63.01;98125.25;4975284;28;20031;-72
2023/01/13 09:46:48;;;;;;;11.20;8.00;;;;;;;8.73;62.94;98124.34;4992117;28;20030;-69
2023/01/13 09:49:22;;;;;;;8.10;4.03;;;;;;;8.79;62.26;98117.72;4988855;28;20035;-69
2023/01/13 09:52:02;;;;;;;10.07;4.22;;;;;;;8.82;62.44;98123.72;4972990;28;20023;-69
2023/01/13 09:54:37;;;;;;;9.98;5.13;;;;;;;8.86;62.54;98119.28;5009714;28;20887;-70
2023/01/13 09:57:08;;;;;;;8.27;4.70;;;;;;;8.89;62.44;98119.50;4973413;28;20071;-71
2023/01/13 09:59:35;;;;;;;7.85;4.00;;;;;;;8.94;62.42;98124.13;4973236;28;20034;-72
2023/01/13 10:02:15;;;;;;;8.07;4.70;;;;;;;8.98;62.32;98124.31;4972910;28;20038;-71
2023/01/13 10:04:41;;;;;;;11.43;5.53;;;;;;;9.00;62.14;98106.50;4973234;28;20023;-72
2023/01/13 10:07:13;;;;;;;8.10;4.50;;;;;;;9.07;62.18;98111.63;4972825;28;20025;-73
2023/01/13 10:09:51;;;;;;;7.13;3.92;;;;;;;9.14;63.15;98106.59;4972762;28;20066;-72
2023/01/13 10:15:18;;;;;;;8.98;4.85;;;;;;;9.27;60.72;98099.56;4973725;28;20054;-72
2023/01/13 10:17:58;;;;;;;6.80;3.90;;;;;;;9.32;61.53;98095.94;4970767;28;20030;-75
2023/01/13 10:20:27;;;;;;;;;;;;;;;9.38;61.88;98105.69;4973314;28;20118;-74
2023/01/13 10:23:26;;;;;;;6.68;4.30;;;;;;;9.43;61.12;98093.84;4973431;28;19921;-72
2023/01/13 10:26:05;;;;;;;5.55;3.67;;;;;;;9.47;60.30;98097.63;5031033;28;20028;-73
2023/01/13 10:28:30;;;;;;;5.95;3.45;;;;;;;9.48;60.73;98091.03;4969708;28;20035;-72
2023/01/13 10:30:56;;;;;;;7.97;3.45;;;;;;;9.52;60.44;98084.69;4983179;28;20095;-71
2023/01/13 10:33:29;;;;;;;7.43;4.68;;;;;;;9.55;60.68;98085.19;4979082;28;20023;-72
2023/01/13 10:36:02;;;;;;;8.70;5.80;;;;;;;9.56;60.16;98089.56;4971760;28;20034;-74
2023/01/13 10:38:49;;;;;;;8.85;6.05;;;;;;;9.56;60.85;98084.88;5009936;28;20113;-73
2023/01/13 10:41:14;;;;;;;6.03;3.92;;;;;;;9.57;60.07;98075.56;4993504;28;20554;-73
2023/01/13 10:43:44;;;;;;;6.60;5.00;;;;;;;9.57;60.68;98063.81;5000538;28;20073;-74
2023/01/13 10:46:17;;;;;;;6.53;3.95;;;;;;;9.58;61.13;98057.22;5000484;28;20023;-73
2023/01/13 10:48:57;;;;;;;6.22;3.63;;;;;;;9.59;60.63;98058.81;4968709;28;20034;-75
2023/01/13 10:51:36;;;;;;;5.32;3.08;;;;;;;9.62;60.25;98055.47;4994407;28;20073;-75
2023/01/13 10:54:12;;;;;;;5.35;3.60;;;;;;;9.59;60.00;98065.13;4968746;28;20045;-74
2023/01/13 10:56:40;;;;;;;8.20;4.10;;;;;;;9.59;60.40;98067.03;5006671;28;20049;-73
2023/01/13 10:59:23;;;;;;;6.13;3.67;;;;;;;9.53;60.48;98069.06;4983811;28;20053;-71
2023/01/13 11:01:56;;;;;;;5.18;3.28;;;;;;;9.49;60.67;98065.28;4968549;28;20026;-70
2023/01/13 11:04:30;;;;;;;5.82;3.40;;;;;;;9.42;60.30;98071.16;4969236;28;20034;-70
2023/01/13 11:06:56;;;;;;;8.75;5.00;;;;;;;9.39;60.73;98069.81;4967739;28;20062;-70
2023/01/13 11:09:22;;;;;;;7.80;5.13;;;;;;;9.37;61.15;98063.00;4969364;28;20061;-69
2023/01/13 11:11:54;;;;;;;7.82;4.20;;;;;;;9.38;61.01;98068.19;4969047;28;20027;-71
2023/01/13 11:14:32;;;;;;;6.40;3.70;;;;;;;9.33;61.11;98067.47;4969258;28;20031;-69
2023/01/13 11:17:04;;;;;;;12.93;4.68;;;;;;;9.26;60.84;98062.38;4967136;28;20113;-71
2023/01/13 11:19:31;;;;;;;8.48;5.65;;;;;;;9.20;60.08;98053.41;4968707;28;20432;-72
2023/01/13 11:22:10;;;;;;;7.70;5.18;;;;;;;9.15;61.37;98058.97;4968770;28;20506;-72
2023/01/13 11:24:50;;;;;;;9.02;5.30;;;;;;;9.11;60.56;98051.66;5001973;28;20492;-72
2023/01/13 11:27:33;;;;;;;8.38;5.40;;;;;;;9.07;60.81;98043.22;4966765;28;20022;-72
2023/01/13 11:30:10;;;;;;;8.52;4.68;;;;;;;9.06;61.77;98053.34;4967774;28;20545;-72
2023/01/13 11:32:45;;;;;;;11.90;5.72;;;;;;;9.07;61.53;98048.69;4968691;28;20039;-71
2023/01/13 11:35:20;;;;;;;8.00;5.22;;;;;;;9.07;61.32;98046.78;4969364;28;20022;-71
2023/01/13 11:38:00;;;;;;;10.52;5.72;;;;;;;9.08;61.24;98042.13;4968968;28;20121;-70
2023/01/13 11:40:33;;;;;;;7.90;4.68;;;;;;;9.08;61.90;98042.91;4968430;28;20054;-72
2023/01/13 11:43:10;;;;;;;9.55;6.22;;;;;;;9.10;61.29;98028.97;4969121;28;20475;-71
2023/01/13 11:45:42;;;;;;;9.77;5.72;;;;;;;9.12;61.52;98029.47;4966821;28;20555;-71
2023/01/13 11:48:14;;;;;;;9.27;5.65;;;;;;;9.14;61.32;98030.00;4968313;28;20031;-71
2023/01/13 11:50:58;;;;;;;8.70;5.03;;;;;;;9.16;60.97;98032.44;5021121;28;20031;-69
2023/01/13 11:53:45;;;;;;;10.10;6.28;;;;;;;9.19;61.66;98038.09;4968803;28;20031;-70
2023/01/13 11:56:27;;;;;;;10.85;7.00;;;;;;;9.26;61.23;98020.50;4982399;28;20044;-69
2023/01/13 11:59:27;;;;;;;13.52;6.85;;;;;;;9.27;61.11;98028.44;4971565;28;20157;-70
2023/01/13 12:02:20;;;;;;;9.15;5.32;;;;;;;9.29;61.23;98022.63;4991218;28;20044;-70
2023/01/13 12:04:57;;;;;;;17.27;5.60;;;;;;;9.31;60.73;98020.41;5007236;28;20030;-71
2023/01/13 12:08:04;;;;;;;8.20;5.35;;;;;;;9.30;60.58;98014.16;4966317;28;20039;-71
2023/01/13 12:10:49;;;;;;;8.38;5.07;;;;;;;9.30;60.96;98018.78;4980408;28;20062;-70
2023/01/13 12:13:42;;;;;;;9.95;5.88;;;;;;;9.30;60.75;98033.31;4967711;28;20034;-71
2023/01/13 12:16:14;;;;;;;8.57;4.82;;;;;;;9.30;61.19;98019.63;4985649;28;20058;-71
2023/01/13 12:19:09;;;;;;;7.82;4.45;;;;;;;9.30;60.65;98018.78;4988225;28;20020;-71
2023/01/13 12:21:40;;;;;;;11.85;6.97;;;;;;;9.30;61.78;98013.31;5030197;28;20067;-71
2023/01/13 12:24:12;;;;;;;9.23;5.78;;;;;;;9.32;61.27;98017.41;4967371;28;20081;-71
2023/01/13 12:26:41;;;;;;;9.10;5.30;;;;;;;9.33;60.46;98010.00;5003677;28;20028;-71
2023/01/13 12:29:17;;;;;;;8.32;4.88;;;;;;;9.31;60.87;98006.72;4994005;28;20037;-71
2023/01/13 12:31:46;;;;;;;9.27;5.35;;;;;;;9.29;60.92;98007.06;5004492;28;20676;-70
2023/01/13 12:34:29;;;;;;;8.55;5.05;;;;;;;9.29;60.69;98008.97;4972015;28;20035;-70
2023/01/13 12:37:07;;;;;;;12.98;5.47;;;;;;;9.30;61.67;98021.53;4988473;28;20029;-69